Time;durP1;ratioP1;P1;durP2;ratioP2;P2;SDS_P1;SDS_P2;PMS_P1;PMS_P2;Temp;Humidity;BMP_temperature;BMP_pressure;BME280_temperature;BME280_humidity;BME280_pressure;Samples;Min_cycle;Max_cycle;Signal;HPM_P1;HPM_P2
2023/06/10 00:01:04;;;;;;;6.90;6.20;;;;;;;18.32;43.10;100403.81;20724546;28;20542;-80
2023/06/10 00:11:06;;;;;;;6.90;6.30;;;;;;;17.93;44.27;100407.09;20706805;28;20311;-80
2023/06/10 00:21:09;;;;;;;7.05;6.35;;;;;;;17.93;43.66;100406.25;20706298;28;20201;-79
2023/06/10 00:31:11;;;;;;;8.43;6.07;;;;;;;17.62;44.67;100410.34;20729290;28;20217;-80
2023/06/10 00:41:14;;;;;;;8.18;6.40;;;;;;;17.75;44.95;100408.88;20704451;28;20487;-80
2023/06/10 00:51:16;;;;;;;8.27;6.60;;;;;;;17.76;44.22;100409.69;20708097;28;20275;-81
2023/06/10 01:01:19;;;;;;;9.40;7.22;;;;;;;17.63;45.43;100417.69;20704081;28;20288;-80
2023/06/10 01:11:26;;;;;;;7.72;6.95;;;;;;;17.18;46.75;100413.84;20693603;28;20743;-79
2023/06/10 01:21:29;;;;;;;9.68;7.30;;;;;;;17.33;46.93;100421.41;20691387;28;20194;-79
2023/06/10 01:31:49;;;;;;;8.63;7.53;;;;;;;17.24;46.76;100432.25;20709573;28;20253;-77
2023/06/10 01:41:53;;;;;;;8.38;7.57;;;;;;;17.25;46.48;100428.19;20711226;28;20225;-78
2023/06/10 01:51:55;;;;;;;8.30;7.20;;;;;;;17.08;47.16;100430.78;20687368;28;20303;-79
2023/06/10 02:01:57;;;;;;;9.85;8.13;;;;;;;16.36;49.33;100430.78;20711625;28;20193;-80
2023/06/10 02:12:00;;;;;;;10.05;8.50;;;;;;;16.49;48.61;100421.66;20737447;28;20506;-79
2023/06/10 02:22:02;;;;;;;10.55;9.45;;;;;;;16.42;49.18;100426.44;20739802;28;20190;-80
2023/06/10 02:32:05;;;;;;;22.50;20.30;;;;;;;16.43;48.77;100434.59;20731742;28;20558;-80
2023/06/10 02:42:11;;;;;;;28.98;26.17;;;;;;;16.50;48.94;100433.88;20756238;28;20194;-80
2023/06/10 02:52:14;;;;;;;20.98;19.02;;;;;;;15.37;52.14;100455.22;20717394;28;20257;-80
2023/06/10 03:02:17;;;;;;;16.70;13.23;;;;;;;15.72;51.47;100440.91;20757053;28;20193;-79
2023/06/10 03:12:25;;;;;;;13.13;11.85;;;;;;;15.60;51.77;100439.06;20712652;28;20263;-80
2023/06/10 03:22:27;;;;;;;16.13;11.55;;;;;;;15.65;52.29;100443.63;20727318;28;20185;-80
2023/06/10 03:32:37;;;;;;;13.52;12.23;;;;;;;15.77;52.15;100447.16;20727667;28;20228;-80
2023/06/10 03:42:43;;;;;;;14.05;12.50;;;;;;;15.50;52.96;100451.84;20690287;28;20252;-81
2023/06/10 03:52:48;;;;;;;13.20;11.70;;;;;;;15.42;53.44;100474.81;20709771;28;20205;-78
2023/06/10 04:02:57;;;;;;;12.95;11.52;;;;;;;15.34;52.87;100471.00;20706326;28;20240;-78
2023/06/10 04:13:09;;;;;;;13.25;11.20;;;;;;;15.72;51.22;100472.22;20711480;28;20644;-80
2023/06/10 04:23:19;;;;;;;11.75;10.55;;;;;;;15.44;52.05;100472.44;20698012;28;20189;-78
2023/06/10 04:33:22;;;;;;;14.75;10.85;;;;;;;15.87;50.58;100475.00;20717410;28;20557;-79
2023/06/10 04:43:24;;;;;;;11.50;9.38;;;;;;;15.91;48.97;100484.44;20686461;28;20194;-78
2023/06/10 04:53:28;;;;;;;12.35;10.32;;;;;;;15.26;51.45;100493.97;20693938;28;20776;-79
2023/06/10 05:03:30;;;;;;;12.82;9.02;;;;;;;15.60;48.85;100483.75;20695267;28;20194;-78
2023/06/10 05:13:33;;;;;;;9.45;8.20;;;;;;;15.98;47.99;100480.94;20683752;28;20222;-79
2023/06/10 05:23:35;;;;;;;11.38;8.40;;;;;;;16.30;47.78;100478.72;20694015;28;20248;-79
2023/06/10 05:33:38;;;;;;;9.07;8.18;;;;;;;15.89;47.94;100481.16;20692925;28;20221;-78
2023/06/10 05:43:40;;;;;;;9.38;7.85;;;;;;;16.91;44.78;100484.31;20690848;28;20185;-75
2023/06/10 05:53:43;;;;;;;11.27;7.90;;;;;;;16.77;45.99;100484.06;20701785;28;20240;-76
2023/06/10 06:03:45;;;;;;;7.70;6.90;;;;;;;17.00;46.01;100495.44;20696931;28;20252;-77
2023/06/10 06:13:48;;;;;;;10.05;7.18;;;;;;;16.82;44.93;100485.78;20686711;28;20575;-77
2023/06/10 06:23:54;;;;;;;8.43;7.30;;;;;;;17.72;42.69;100483.91;20705353;28;20645;-76
2023/06/10 06:33:56;;;;;;;10.52;6.15;;;;;;;17.72;42.07;100498.19;20718989;28;20283;-76
2023/06/10 06:43:59;;;;;;;6.03;5.38;;;;;;;18.29;40.54;100496.88;20705092;28;20201;-80
2023/06/10 06:54:12;;;;;;;9.07;4.95;;;;;;;18.48;40.99;100493.00;20707862;28;20749;-79
2023/06/10 07:04:15;;;;;;;6.85;4.95;;;;;;;18.46;41.41;100495.41;20705032;28;20247;-80
2023/06/10 07:14:17;;;;;;;7.57;5.55;;;;;;;18.72;39.93;100495.28;20713958;28;20691;-78
2023/06/10 07:24:20;;;;;;;8.25;5.60;;;;;;;19.48;39.41;100488.13;20715964;28;20198;-78
2023/06/10 07:34:23;;;;;;;7.22;5.20;;;;;;;19.80;37.68;100486.28;20730721;28;20529;-78
2023/06/10 07:44:26;;;;;;;6.53;4.07;;;;;;;19.99;36.82;100488.81;20713318;28;20212;-79
2023/06/10 07:54:28;;;;;;;6.13;4.32;;;;;;;20.37;37.36;100493.00;20689758;28;20221;-79
2023/06/10 08:04:31;;;;;;;6.68;4.70;;;;;;;20.43;36.87;100493.47;20710195;28;20197;-78
2023/06/10 08:14:34;;;;;;;4.85;4.32;;;;;;;21.03;36.88;100487.81;20691192;28;20595;-79
2023/06/10 08:24:36;;;;;;;7.68;3.90;;;;;;;21.01;35.88;100496.00;20681049;28;20194;-78
2023/06/10 08:34:39;;;;;;;5.60;3.75;;;;;;;21.87;35.19;100485.19;20703859;28;20296;-79
2023/06/10 08:44:41;;;;;;;5.13;3.90;;;;;;;21.63;35.65;100488.97;20702117;28;20190;-78
2023/06/10 08:55:07;;;;;;;7.50;3.97;;;;;;;22.25;33.90;100498.59;20713601;28;20296;-79
2023/06/10 09:05:10;;;;;;;8.02;4.15;;;;;;;22.56;35.16;100490.97;20691749;28;20288;-80
2023/06/10 09:15:14;;;;;;;6.13;4.38;;;;;;;22.91;33.76;100481.31;20703166;28;20202;-80
2023/06/10 09:25:17;;;;;;;4.68;3.65;;;;;;;23.02;34.14;100481.22;20688768;28;21175;-81
2023/06/10 09:35:20;;;;;;;5.90;3.92;;;;;;;23.48;34.40;100466.34;20700692;28;20256;-79
2023/06/10 09:45:23;;;;;;;5.40;3.88;;;;;;;24.12;32.25;100465.59;20696148;28;20241;-80
2023/06/10 09:55:26;;;;;;;5.93;3.60;;;;;;;23.99;32.05;100470.28;20697506;28;20198;-80
2023/06/10 10:05:29;;;;;;;4.10;3.70;;;;;;;24.10;31.22;100473.88;20723907;28;20241;-77
2023/06/10 10:15:32;;;;;;;8.25;4.10;;;;;;;24.77;31.03;100471.25;20693487;28;20213;-79
2023/06/10 10:25:38;;;;;;;5.88;4.20;;;;;;;24.23;30.32;100454.72;20674404;28;20237;-80
2023/06/10 10:35:41;;;;;;;6.53;4.50;;;;;;;25.37;28.92;100450.81;20682965;28;20598;-79
2023/06/10 10:45:46;;;;;;;6.07;4.80;;;;;;;25.55;28.63;100447.56;20654263;28;20249;-81
2023/06/10 10:56:12;;;;;;;5.30;4.80;;;;;;;25.41;28.85;100439.16;20710869;28;20283;-77
2023/06/10 11:06:17;;;;;;;5.72;4.75;;;;;;;25.84;28.86;100438.31;20714719;28;20237;-80
2023/06/10 11:16:20;;;;;;;5.65;3.90;;;;;;;25.89;28.36;100420.47;20725677;28;20197;-79
2023/06/10 11:26:26;;;;;;;4.70;4.28;;;;;;;26.07;28.52;100413.00;20709203;28;20237;-79
2023/06/10 11:36:29;;;;;;;5.15;4.22;;;;;;;26.26;27.16;100408.47;20707618;28;20226;-81
2023/06/10 11:46:32;;;;;;;6.70;4.22;;;;;;;26.80;26.28;100405.09;20713593;28;20283;-81
2023/06/10 11:56:34;;;;;;;12.07;4.72;;;;;;;26.87;26.17;100402.00;20709632;28;20186;-77
2023/06/10 12:06:57;;;;;;;6.53;4.47;;;;;;;26.82;25.39;100388.06;20689575;28;20241;-80
2023/06/10 12:16:59;;;;;;;5.38;4.30;;;;;;;27.01;25.09;100381.34;20700698;28;20217;-75
2023/06/10 12:27:02;;;;;;;6.85;4.45;;;;;;;27.30;24.19;100378.47;20718332;28;20240;-75
2023/06/10 12:37:06;;;;;;;4.65;4.25;;;;;;;26.81;24.52;100366.16;20716679;28;20236;-74
2023/06/10 12:47:09;;;;;;;6.78;4.72;;;;;;;27.72;23.27;100364.84;20710748;28;20248;-76
2023/06/10 12:57:12;;;;;;;5.30;4.80;;;;;;;27.79;22.87;100358.81;20714506;28;20259;-75
2023/06/10 13:07:15;;;;;;;6.25;4.68;;;;;;;27.01;23.53;100358.16;20704666;28;20299;-75
2023/06/10 13:17:21;;;;;;;10.55;4.65;;;;;;;27.25;24.38;100347.16;20695970;28;20229;-78
2023/06/10 13:27:23;;;;;;;9.13;7.35;;;;;;;27.48;24.80;100343.97;20679688;28;20253;-83
2023/06/10 13:37:26;;;;;;;5.95;4.53;;;;;;;27.51;23.61;100340.16;20692333;28;20225;-77
2023/06/10 13:47:29;;;;;;;7.32;4.75;;;;;;;27.24;24.27;100344.69;20704228;28;20264;-79
2023/06/10 13:57:31;;;;;;;6.97;4.38;;;;;;;26.87;23.65;100337.44;20701223;28;20533;-79
2023/06/10 14:07:34;;;;;;;4.65;4.25;;;;;;;27.09;24.52;100327.69;20707770;28;20225;-76
2023/06/10 14:17:36;;;;;;;5.28;4.68;;;;;;;27.64;23.50;100325.69;20693271;28;20197;-79
2023/06/10 14:27:39;;;;;;;7.03;4.60;;;;;;;27.40;23.35;100319.38;20713774;28;20900;-78
2023/06/10 14:37:41;;;;;;;5.63;3.75;;;;;;;27.95;22.28;100320.19;20710918;28;20233;-77
2023/06/10 14:47:43;;;;;;;7.43;4.35;;;;;;;27.31;24.31;100307.66;20724143;28;21053;-78
2023/06/10 14:57:46;;;;;;;5.50;4.28;;;;;;;26.93;24.71;100319.06;20722451;28;20245;-78
2023/06/10 15:07:48;;;;;;;4.72;4.00;;;;;;;26.95;24.70;100307.84;20709516;28;20240;-78
2023/06/10 15:17:51;;;;;;;4.57;4.10;;;;;;;26.96;25.03;100300.78;20703312;28;20328;-79
2023/06/10 15:27:53;;;;;;;8.52;4.38;;;;;;;26.64;25.65;100289.22;20693258;28;20295;-79
2023/06/10 15:37:55;;;;;;;8.93;4.57;;;;;;;27.07;24.44;100292.59;20709860;28;20378;-78
2023/06/10 15:47:58;;;;;;;4.68;4.18;;;;;;;26.46;24.95;100278.13;20704143;28;20232;-78
2023/06/10 15:58:03;;;;;;;4.90;4.10;;;;;;;26.44;25.08;100283.56;20697965;28;20209;-76
2023/06/10 16:08:05;;;;;;;4.18;3.53;;;;;;;26.10;26.00;100284.81;20697155;28;20281;-78
2023/06/10 16:18:08;;;;;;;5.70;5.20;;;;;;;26.61;26.09;100273.56;20703725;28;20212;-78
2023/06/10 16:28:10;;;;;;;6.07;3.90;;;;;;;26.86;26.26;100275.00;20696891;28;20245;-79
2023/06/10 16:38:13;;;;;;;8.00;4.03;;;;;;;26.53;26.43;100271.34;20692455;28;20283;-78
2023/06/10 16:48:15;;;;;;;5.05;4.15;;;;;;;25.88;26.83;100282.91;20703295;28;20241;-79
2023/06/10 16:58:17;;;;;;;5.50;4.47;;;;;;;26.30;27.52;100276.06;20704939;28;20591;-79
2023/06/10 17:08:19;;;;;;;6.20;4.82;;;;;;;26.60;26.43;100277.75;20693854;28;20216;-79
2023/06/10 17:18:22;;;;;;;5.88;4.60;;;;;;;26.16;27.31;100282.19;20682895;28;20197;-78
2023/06/10 17:28:24;;;;;;;4.63;4.20;;;;;;;26.12;26.39;100290.13;20695007;28;20236;-78
2023/06/10 17:38:26;;;;;;;8.05;4.82;;;;;;;25.96;27.67;100285.16;20698546;28;20526;-77
2023/06/10 17:48:29;;;;;;;17.88;14.82;;;;;;;26.66;27.94;100301.19;20690794;28;20676;-78
2023/06/10 17:58:31;;;;;;;6.25;4.63;;;;;;;25.06;29.46;100308.59;20699583;28;20193;-79
2023/06/10 18:08:34;;;;;;;10.32;5.88;;;;;;;25.08;30.88;100327.53;20698690;28;20582;-79
2023/06/10 18:18:37;;;;;;;6.30;5.75;;;;;;;25.05;31.72;100335.00;20691362;28;20225;-82
2023/06/10 18:28:39;;;;;;;8.57;5.60;;;;;;;24.81;31.25;100342.91;20694873;28;20295;-79
2023/06/10 18:38:41;;;;;;;5.68;5.13;;;;;;;24.11;31.19;100357.22;20708174;28;20324;-79
2023/06/10 18:48:45;;;;;;;6.55;5.07;;;;;;;24.22;31.30;100351.31;20695164;28;20302;-77
2023/06/10 18:58:49;;;;;;;25.48;22.88;;;;;;;24.15;31.60;100357.19;20702827;28;20248;-78
2023/06/10 19:08:52;;;;;;;7.47;6.57;;;;;;;23.62;32.41;100365.31;20708626;28;20291;-79
2023/06/10 19:18:54;;;;;;;9.23;8.35;;;;;;;23.93;32.49;100376.88;20701786;28;20240;-78
2023/06/10 19:28:57;;;;;;;8.85;7.28;;;;;;;23.38;32.79;100380.88;20700529;28;20222;-78
2023/06/10 19:38:59;;;;;;;9.25;8.07;;;;;;;23.40;32.30;100395.66;20715249;28;20294;-79
2023/06/10 19:49:01;;;;;;;6.20;5.22;;;;;;;23.30;32.43;100390.84;20713522;28;20209;-78
2023/06/10 19:59:05;;;;;;;6.50;5.45;;;;;;;23.28;32.98;100401.97;20695006;28;20563;-79
2023/06/10 20:09:07;;;;;;;8.45;5.10;;;;;;;22.55;33.86;100419.47;20690029;28;20240;-76
2023/06/10 20:19:10;;;;;;;5.47;4.90;;;;;;;22.75;33.97;100437.03;20718604;28;20189;-77
2023/06/10 20:29:12;;;;;;;6.38;5.07;;;;;;;22.28;34.69;100458.72;20701867;28;20606;-78
2023/06/10 20:39:15;;;;;;;4.78;4.35;;;;;;;22.52;34.88;100469.25;20705910;28;20225;-78
2023/06/10 20:49:18;;;;;;;6.03;5.10;;;;;;;22.09;36.17;100465.78;20708969;28;20518;-80
2023/06/10 20:59:21;;;;;;;5.72;4.97;;;;;;;22.28;35.65;100468.19;20689313;28;20652;-77
2023/06/10 21:09:23;;;;;;;7.13;4.63;;;;;;;22.11;35.52;100464.16;20717407;28;20249;-77
2023/06/10 21:19:26;;;;;;;6.18;5.13;;;;;;;21.60;35.31;100470.50;20689705;28;20283;-77
2023/06/10 21:29:28;;;;;;;7.28;5.40;;;;;;;21.70;35.99;100469.66;20704808;28;20213;-77
2023/06/10 21:39:31;;;;;;;9.00;5.90;;;;;;;21.24;36.75;100469.75;20718867;28;20242;-79
2023/06/10 21:49:33;;;;;;;12.90;7.82;;;;;;;21.61;36.53;100471.34;20686279;28;20623;-78
2023/06/10 21:59:37;;;;;;;6.03;5.13;;;;;;;21.12;37.21;100470.19;20690459;28;20276;-79
2023/06/10 22:09:49;;;;;;;6.97;5.28;;;;;;;21.25;36.75;100467.72;20695679;28;20271;-80
2023/06/10 22:19:52;;;;;;;6.38;5.78;;;;;;;20.71;38.37;100498.44;20703476;28;20632;-78
2023/06/10 22:29:55;;;;;;;9.05;7.07;;;;;;;20.56;38.22;100488.19;20704986;28;20257;-78
2023/06/10 22:39:57;;;;;;;9.50;6.53;;;;;;;20.55;38.56;100490.22;20673259;28;20212;-78
2023/06/10 22:49:59;;;;;;;7.45;6.65;;;;;;;20.72;38.80;100495.16;20673909;28;20718;-78
2023/06/10 23:00:02;;;;;;;8.60;7.05;;;;;;;20.39;39.54;100495.50;20684122;28;20209;-78
2023/06/10 23:10:07;;;;;;;9.85;7.45;;;;;;;20.48;39.80;100504.53;20722903;28;20299;-78
2023/06/10 23:20:10;;;;;;;10.88;7.13;;;;;;;19.63;42.29;100512.75;20717047;28;20194;-78
2023/06/10 23:30:13;;;;;;;7.93;7.22;;;;;;;19.41;42.39;100521.22;20729836;28;20225;-78
2023/06/10 23:40:17;;;;;;;7.43;6.70;;;;;;;19.80;41.20;100517.81;20690949;28;20225;-78
2023/06/10 23:50:20;;;;;;;11.75;6.85;;;;;;;19.85;40.90;100514.53;20737442;28;20245;-78
